sensor_id;sensor_type;location;lat;lon;timestamp;P1;durP1;ratioP1;P2;durP2;ratioP2
53479;SDS011;56133;51.012;-1.648;2022-12-20T00:00:48;24.58;;;3.97;;
53479;SDS011;56133;51.012;-1.648;2022-12-20T00:03:14;22.80;;;4.32;;
53479;SDS011;56133;51.012;-1.648;2022-12-20T00:05:40;31.38;;;4.93;;
53479;SDS011;56133;51.012;-1.648;2022-12-20T00:08:07;42.63;;;6.00;;
53479;SDS011;56133;51.012;-1.648;2022-12-20T00:10:34;36.28;;;5.50;;
53479;SDS011;56133;51.012;-1.648;2022-12-20T00:13:00;35.90;;;5.53;;
53479;SDS011;56133;51.012;-1.648;2022-12-20T00:15:26;45.67;;;6.07;;
53479;SDS011;56133;51.012;-1.648;2022-12-20T00:17:51;40.10;;;5.75;;
53479;SDS011;56133;51.012;-1.648;2022-12-20T00:20:17;39.47;;;5.53;;
53479;SDS011;56133;51.012;-1.648;2022-12-20T00:22:42;39.25;;;5.50;;
53479;SDS011;56133;51.012;-1.648;2022-12-20T00:25:08;33.60;;;5.03;;
53479;SDS011;56133;51.012;-1.648;2022-12-20T00:27:34;35.75;;;5.63;;
53479;SDS011;56133;51.012;-1.648;2022-12-20T00:29:59;45.85;;;6.47;;
53479;SDS011;56133;51.012;-1.648;2022-12-20T00:32:25;40.28;;;5.80;;
53479;SDS011;56133;51.012;-1.648;2022-12-20T00:34:51;41.38;;;5.53;;
53479;SDS011;56133;51.012;-1.648;2022-12-20T00:37:16;33.42;;;5.78;;
53479;SDS011;56133;51.012;-1.648;2022-12-20T00:39:42;38.90;;;6.00;;
53479;SDS011;56133;51.012;-1.648;2022-12-20T00:42:07;41.00;;;6.45;;
53479;SDS011;56133;51.012;-1.648;2022-12-20T00:44:33;46.88;;;5.78;;
53479;SDS011;56133;51.012;-1.648;2022-12-20T00:46:58;38.95;;;5.95;;
53479;SDS011;56133;51.012;-1.648;2022-12-20T00:49:23;43.13;;;5.65;;
53479;SDS011;56133;51.012;-1.648;2022-12-20T00:51:49;40.38;;;5.63;;
53479;SDS011;56133;51.012;-1.648;2022-12-20T00:54:14;38.97;;;5.28;;
53479;SDS011;56133;51.012;-1.648;2022-12-20T00:56:40;39.75;;;5.55;;
53479;SDS011;56133;51.012;-1.648;2022-12-20T00:59:05;42.40;;;6.20;;
53479;SDS011;56133;51.012;-1.648;2022-12-20T01:01:31;41.42;;;5.88;;
53479;SDS011;56133;51.012;-1.648;2022-12-20T01:03:58;38.47;;;5.68;;
53479;SDS011;56133;51.012;-1.648;2022-12-20T01:06:24;29.15;;;4.75;;
53479;SDS011;56133;51.012;-1.648;2022-12-20T01:08:51;35.05;;;4.50;;
53479;SDS011;56133;51.012;-1.648;2022-12-20T01:11:22;27.42;;;4.10;;
53479;SDS011;56133;51.012;-1.648;2022-12-20T01:13:50;27.88;;;3.50;;
53479;SDS011;56133;51.012;-1.648;2022-12-20T01:18:46;29.85;;;4.50;;
53479;SDS011;56133;51.012;-1.648;2022-12-20T01:21:13;35.97;;;5.22;;
53479;SDS011;56133;51.012;-1.648;2022-12-20T01:23:40;31.65;;;4.85;;
53479;SDS011;56133;51.012;-1.648;2022-12-20T01:26:07;33.40;;;5.13;;
53479;SDS011;56133;51.012;-1.648;2022-12-20T01:28:35;35.88;;;5.28;;
53479;SDS011;56133;51.012;-1.648;2022-12-20T01:31:04;40.97;;;5.82;;
53479;SDS011;56133;51.012;-1.648;2022-12-20T01:33:30;31.40;;;6.03;;
53479;SDS011;56133;51.012;-1.648;2022-12-20T01:35:56;34.33;;;6.07;;
53479;SDS011;56133;51.012;-1.648;2022-12-20T01:38:25;41.83;;;6.85;;
53479;SDS011;56133;51.012;-1.648;2022-12-20T01:40:52;40.22;;;5.90;;
53479;SDS011;56133;51.012;-1.648;2022-12-20T01:43:18;34.83;;;6.22;;
53479;SDS011;56133;51.012;-1.648;2022-12-20T01:45:44;42.17;;;7.00;;
53479;SDS011;56133;51.012;-1.648;2022-12-20T01:48:10;58.72;;;6.90;;
53479;SDS011;56133;51.012;-1.648;2022-12-20T01:50:38;42.30;;;5.95;;
53479;SDS011;56133;51.012;-1.648;2022-12-20T01:53:04;38.75;;;7.10;;
53479;SDS011;56133;51.012;-1.648;2022-12-20T01:55:29;56.05;;;7.10;;
53479;SDS011;56133;51.012;-1.648;2022-12-20T02:00:36;44.10;;;6.95;;
53479;SDS011;56133;51.012;-1.648;2022-12-20T02:03:11;43.08;;;6.18;;
53479;SDS011;56133;51.012;-1.648;2022-12-20T02:05:40;41.08;;;7.00;;
53479;SDS011;56133;51.012;-1.648;2022-12-20T02:08:09;44.55;;;7.15;;
53479;SDS011;56133;51.012;-1.648;2022-12-20T02:13:57;43.72;;;7.00;;
53479;SDS011;56133;51.012;-1.648;2022-12-20T02:16:25;30.45;;;6.63;;
53479;SDS011;56133;51.012;-1.648;2022-12-20T02:21:21;44.33;;;6.88;;
53479;SDS011;56133;51.012;-1.648;2022-12-20T02:30:15;31.38;;;6.80;;
53479;SDS011;56133;51.012;-1.648;2022-12-20T02:35:32;31.83;;;7.07;;
53479;SDS011;56133;51.012;-1.648;2022-12-20T02:38:01;29.25;;;6.65;;
53479;SDS011;56133;51.012;-1.648;2022-12-20T02:40:47;41.35;;;7.55;;
53479;SDS011;56133;51.012;-1.648;2022-12-20T02:43:15;42.97;;;7.30;;
53479;SDS011;56133;51.012;-1.648;2022-12-20T02:46:00;34.73;;;6.73;;
53479;SDS011;56133;51.012;-1.648;2022-12-20T02:48:27;33.30;;;7.00;;
53479;SDS011;56133;51.012;-1.648;2022-12-20T02:50:55;36.88;;;6.78;;
53479;SDS011;56133;51.012;-1.648;2022-12-20T02:53:23;39.30;;;7.43;;
53479;SDS011;56133;51.012;-1.648;2022-12-20T02:55:53;32.90;;;6.93;;
53479;SDS011;56133;51.012;-1.648;2022-12-20T02:58:37;33.28;;;7.03;;
53479;SDS011;56133;51.012;-1.648;2022-12-20T03:01:09;38.90;;;7.57;;
53479;SDS011;56133;51.012;-1.648;2022-12-20T03:03:38;31.17;;;6.90;;
53479;SDS011;56133;51.012;-1.648;2022-12-20T03:06:04;34.85;;;7.53;;
53479;SDS011;56133;51.012;-1.648;2022-12-20T03:08:30;35.85;;;8.05;;
53479;SDS011;56133;51.012;-1.648;2022-12-20T03:10:55;33.90;;;7.35;;
53479;SDS011;56133;51.012;-1.648;2022-12-20T03:13:22;39.25;;;8.05;;
53479;SDS011;56133;51.012;-1.648;2022-12-20T03:15:48;34.88;;;7.40;;
53479;SDS011;56133;51.012;-1.648;2022-12-20T03:18:14;42.38;;;7.65;;
53479;SDS011;56133;51.012;-1.648;2022-12-20T03:20:40;36.33;;;7.30;;
53479;SDS011;56133;51.012;-1.648;2022-12-20T03:23:05;33.45;;;7.45;;
53479;SDS011;56133;51.012;-1.648;2022-12-20T03:25:31;41.75;;;8.95;;
53479;SDS011;56133;51.012;-1.648;2022-12-20T03:27:57;32.60;;;7.32;;
53479;SDS011;56133;51.012;-1.648;2022-12-20T03:30:22;27.15;;;6.75;;
53479;SDS011;56133;51.012;-1.648;2022-12-20T03:32:48;42.13;;;7.65;;
53479;SDS011;56133;51.012;-1.648;2022-12-20T03:35:13;33.85;;;6.90;;
53479;SDS011;56133;51.012;-1.648;2022-12-20T03:37:39;30.65;;;6.38;;
53479;SDS011;56133;51.012;-1.648;2022-12-20T03:40:04;30.63;;;6.22;;
53479;SDS011;56133;51.012;-1.648;2022-12-20T03:42:31;30.60;;;6.68;;
53479;SDS011;56133;51.012;-1.648;2022-12-20T03:44:56;31.30;;;7.00;;
53479;SDS011;56133;51.012;-1.648;2022-12-20T03:47:21;34.25;;;6.70;;
53479;SDS011;56133;51.012;-1.648;2022-12-20T03:49:47;28.63;;;6.93;;
53479;SDS011;56133;51.012;-1.648;2022-12-20T03:52:12;29.50;;;7.03;;
53479;SDS011;56133;51.012;-1.648;2022-12-20T03:54:39;30.30;;;6.50;;
53479;SDS011;56133;51.012;-1.648;2022-12-20T03:57:05;22.33;;;6.28;;
53479;SDS011;56133;51.012;-1.648;2022-12-20T03:59:31;29.23;;;6.22;;
53479;SDS011;56133;51.012;-1.648;2022-12-20T04:01:56;21.42;;;6.45;;
53479;SDS011;56133;51.012;-1.648;2022-12-20T04:04:22;34.85;;;6.88;;
53479;SDS011;56133;51.012;-1.648;2022-12-20T04:06:47;31.83;;;8.18;;
53479;SDS011;56133;51.012;-1.648;2022-12-20T04:09:13;34.33;;;8.07;;
53479;SDS011;56133;51.012;-1.648;2022-12-20T04:11:39;40.65;;;7.72;;
53479;SDS011;56133;51.012;-1.648;2022-12-20T04:14:04;30.25;;;7.45;;
53479;SDS011;56133;51.012;-1.648;2022-12-20T04:16:30;23.92;;;6.53;;
53479;SDS011;56133;51.012;-1.648;2022-12-20T04:18:56;34.38;;;7.63;;
53479;SDS011;56133;51.012;-1.648;2022-12-20T04:21:22;35.88;;;7.88;;
53479;SDS011;56133;51.012;-1.648;2022-12-20T04:23:56;35.70;;;7.37;;
53479;SDS011;56133;51.012;-1.648;2022-12-20T04:26:22;32.80;;;6.45;;
53479;SDS011;56133;51.012;-1.648;2022-12-20T04:28:48;31.27;;;7.03;;
53479;SDS011;56133;51.012;-1.648;2022-12-20T04:31:14;26.08;;;6.70;;
53479;SDS011;56133;51.012;-1.648;2022-12-20T04:33:39;30.25;;;6.40;;
53479;SDS011;56133;51.012;-1.648;2022-12-20T04:36:05;32.80;;;6.70;;
53479;SDS011;56133;51.012;-1.648;2022-12-20T04:38:31;40.85;;;7.00;;
53479;SDS011;56133;51.012;-1.648;2022-12-20T04:40:57;11.43;;;2.55;;
53479;SDS011;56133;51.012;-1.648;2022-12-20T04:43:23;4.80;;;0.63;;
53479;SDS011;56133;51.012;-1.648;2022-12-20T04:45:50;1.65;;;0.17;;
53479;SDS011;56133;51.012;-1.648;2022-12-20T04:48:18;1.23;;;0.10;;
53479;SDS011;56133;51.012;-1.648;2022-12-20T04:50:47;1.15;;;0.10;;
53479;SDS011;56133;51.012;-1.648;2022-12-20T04:53:13;0.43;;;0.08;;
53479;SDS011;56133;51.012;-1.648;2022-12-20T04:55:58;0.30;;;0.10;;
53479;SDS011;56133;51.012;-1.648;2022-12-20T04:58:23;1.50;;;0.10;;
53479;SDS011;56133;51.012;-1.648;2022-12-20T05:00:49;1.05;;;0.10;;
53479;SDS011;56133;51.012;-1.648;2022-12-20T05:03:16;1.00;;;0.00;;
53479;SDS011;56133;51.012;-1.648;2022-12-20T05:05:42;0.93;;;0.00;;
53479;SDS011;56133;51.012;-1.648;2022-12-20T05:08:07;0.35;;;0.00;;
53479;SDS011;56133;51.012;-1.648;2022-12-20T05:10:33;1.55;;;0.00;;
53479;SDS011;56133;51.012;-1.648;2022-12-20T05:12:58;0.35;;;0.00;;
53479;SDS011;56133;51.012;-1.648;2022-12-20T05:15:24;0.47;;;0.03;;
53479;SDS011;56133;51.012;-1.648;2022-12-20T05:17:49;0.00;;;0.00;;
53479;SDS011;56133;51.012;-1.648;2022-12-20T05:20:15;0.10;;;0.00;;
53479;SDS011;56133;51.012;-1.648;2022-12-20T05:22:40;1.48;;;0.00;;
53479;SDS011;56133;51.012;-1.648;2022-12-20T05:25:24;0.40;;;0.10;;
53479;SDS011;56133;51.012;-1.648;2022-12-20T05:28:08;0.17;;;0.00;;
53479;SDS011;56133;51.012;-1.648;2022-12-20T05:30:33;0.77;;;0.32;;
53479;SDS011;56133;51.012;-1.648;2022-12-20T05:32:59;0.00;;;0.00;;
53479;SDS011;56133;51.012;-1.648;2022-12-20T05:35:24;0.82;;;0.10;;
53479;SDS011;56133;51.012;-1.648;2022-12-20T05:37:52;0.35;;;0.08;;
53479;SDS011;56133;51.012;-1.648;2022-12-20T05:40:18;0.20;;;0.00;;
53479;SDS011;56133;51.012;-1.648;2022-12-20T05:42:43;0.65;;;0.10;;
53479;SDS011;56133;51.012;-1.648;2022-12-20T05:45:09;0.10;;;0.05;;
53479;SDS011;56133;51.012;-1.648;2022-12-20T05:47:35;0.55;;;0.10;;
53479;SDS011;56133;51.012;-1.648;2022-12-20T05:50:01;1.00;;;0.10;;
53479;SDS011;56133;51.012;-1.648;2022-12-20T05:52:27;1.08;;;0.10;;
53479;SDS011;56133;51.012;-1.648;2022-12-20T05:54:52;0.60;;;0.20;;
53479;SDS011;56133;51.012;-1.648;2022-12-20T05:57:18;0.30;;;0.22;;
53479;SDS011;56133;51.012;-1.648;2022-12-20T05:59:43;0.43;;;0.20;;
53479;SDS011;56133;51.012;-1.648;2022-12-20T06:02:09;0.85;;;0.20;;
53479;SDS011;56133;51.012;-1.648;2022-12-20T06:04:36;0.43;;;0.10;;
53479;SDS011;56133;51.012;-1.648;2022-12-20T06:07:02;0.80;;;0.13;;
53479;SDS011;56133;51.012;-1.648;2022-12-20T06:09:29;2.17;;;0.10;;
53479;SDS011;56133;51.012;-1.648;2022-12-20T06:11:55;1.20;;;0.10;;
53479;SDS011;56133;51.012;-1.648;2022-12-20T06:14:21;1.58;;;0.30;;
53479;SDS011;56133;51.012;-1.648;2022-12-20T06:16:46;1.60;;;0.20;;
53479;SDS011;56133;51.012;-1.648;2022-12-20T06:19:12;0.93;;;0.05;;
53479;SDS011;56133;51.012;-1.648;2022-12-20T06:21:38;2.85;;;0.20;;
53479;SDS011;56133;51.012;-1.648;2022-12-20T06:24:04;2.25;;;0.20;;
53479;SDS011;56133;51.012;-1.648;2022-12-20T06:26:30;0.17;;;0.10;;
53479;SDS011;56133;51.012;-1.648;2022-12-20T06:29:00;1.52;;;0.17;;
53479;SDS011;56133;51.012;-1.648;2022-12-20T06:31:26;0.73;;;0.10;;
53479;SDS011;56133;51.012;-1.648;2022-12-20T06:33:51;0.55;;;0.10;;
53479;SDS011;56133;51.012;-1.648;2022-12-20T06:36:17;0.60;;;0.28;;
53479;SDS011;56133;51.012;-1.648;2022-12-20T06:38:42;5.00;;;2.28;;
53479;SDS011;56133;51.012;-1.648;2022-12-20T06:41:08;10.95;;;6.95;;
53479;SDS011;56133;51.012;-1.648;2022-12-20T06:43:33;9.07;;;6.30;;
53479;SDS011;56133;51.012;-1.648;2022-12-20T06:45:58;3.60;;;1.80;;
53479;SDS011;56133;51.012;-1.648;2022-12-20T06:48:24;4.15;;;2.63;;
53479;SDS011;56133;51.012;-1.648;2022-12-20T06:50:49;4.20;;;1.10;;
53479;SDS011;56133;51.012;-1.648;2022-12-20T06:53:15;4.72;;;2.63;;
53479;SDS011;56133;51.012;-1.648;2022-12-20T06:55:41;4.95;;;2.00;;
53479;SDS011;56133;51.012;-1.648;2022-12-20T06:58:06;7.28;;;1.83;;
53479;SDS011;56133;51.012;-1.648;2022-12-20T07:00:31;1.65;;;0.47;;
53479;SDS011;56133;51.012;-1.648;2022-12-20T07:02:57;2.10;;;1.10;;
53479;SDS011;56133;51.012;-1.648;2022-12-20T07:05:23;7.15;;;2.15;;
53479;SDS011;56133;51.012;-1.648;2022-12-20T07:07:48;11.45;;;2.85;;
53479;SDS011;56133;51.012;-1.648;2022-12-20T07:10:14;6.22;;;2.45;;
53479;SDS011;56133;51.012;-1.648;2022-12-20T07:12:39;6.50;;;2.10;;
53479;SDS011;56133;51.012;-1.648;2022-12-20T07:15:05;6.32;;;2.53;;
53479;SDS011;56133;51.012;-1.648;2022-12-20T07:17:32;6.45;;;2.15;;
53479;SDS011;56133;51.012;-1.648;2022-12-20T07:19:58;8.68;;;3.50;;
53479;SDS011;56133;51.012;-1.648;2022-12-20T07:22:25;9.45;;;3.17;;
53479;SDS011;56133;51.012;-1.648;2022-12-20T07:24:51;7.10;;;2.42;;
53479;SDS011;56133;51.012;-1.648;2022-12-20T07:27:16;9.25;;;3.28;;
53479;SDS011;56133;51.012;-1.648;2022-12-20T07:29:42;9.00;;;2.92;;
53479;SDS011;56133;51.012;-1.648;2022-12-20T07:32:08;9.95;;;2.15;;
53479;SDS011;56133;51.012;-1.648;2022-12-20T07:34:35;9.02;;;2.70;;
53479;SDS011;56133;51.012;-1.648;2022-12-20T07:37:01;11.18;;;3.03;;
53479;SDS011;56133;51.012;-1.648;2022-12-20T07:39:27;15.38;;;3.50;;
53479;SDS011;56133;51.012;-1.648;2022-12-20T07:41:53;11.50;;;3.00;;
53479;SDS011;56133;51.012;-1.648;2022-12-20T07:44:19;13.52;;;3.15;;
53479;SDS011;56133;51.012;-1.648;2022-12-20T07:46:45;19.98;;;2.47;;
53479;SDS011;56133;51.012;-1.648;2022-12-20T07:49:10;22.58;;;2.90;;
53479;SDS011;56133;51.012;-1.648;2022-12-20T07:51:40;13.23;;;2.35;;
53479;SDS011;56133;51.012;-1.648;2022-12-20T07:54:11;14.98;;;5.55;;
53479;SDS011;56133;51.012;-1.648;2022-12-20T07:56:41;14.95;;;3.65;;
53479;SDS011;56133;51.012;-1.648;2022-12-20T07:59:10;53.83;;;6.38;;
53479;SDS011;56133;51.012;-1.648;2022-12-20T08:01:39;20.50;;;3.60;;
53479;SDS011;56133;51.012;-1.648;2022-12-20T08:04:10;11.40;;;3.17;;
53479;SDS011;56133;51.012;-1.648;2022-12-20T08:06:39;24.98;;;5.53;;
53479;SDS011;56133;51.012;-1.648;2022-12-20T08:09:06;13.02;;;3.53;;
53479;SDS011;56133;51.012;-1.648;2022-12-20T08:11:34;13.30;;;4.70;;
53479;SDS011;56133;51.012;-1.648;2022-12-20T08:14:01;11.77;;;4.00;;
53479;SDS011;56133;51.012;-1.648;2022-12-20T08:16:28;39.83;;;5.65;;
53479;SDS011;56133;51.012;-1.648;2022-12-20T08:18:53;21.60;;;4.80;;
53479;SDS011;56133;51.012;-1.648;2022-12-20T08:21:19;22.60;;;4.05;;
53479;SDS011;56133;51.012;-1.648;2022-12-20T08:23:44;11.05;;;3.92;;
53479;SDS011;56133;51.012;-1.648;2022-12-20T08:26:10;19.52;;;4.35;;
53479;SDS011;56133;51.012;-1.648;2022-12-20T08:28:35;20.80;;;4.35;;
53479;SDS011;56133;51.012;-1.648;2022-12-20T08:31:05;9.77;;;3.90;;
53479;SDS011;56133;51.012;-1.648;2022-12-20T08:33:32;15.93;;;4.55;;
53479;SDS011;56133;51.012;-1.648;2022-12-20T08:35:59;20.15;;;5.13;;
53479;SDS011;56133;51.012;-1.648;2022-12-20T08:38:29;26.05;;;4.88;;
53479;SDS011;56133;51.012;-1.648;2022-12-20T08:41:02;19.77;;;5.10;;
53479;SDS011;56133;51.012;-1.648;2022-12-20T08:43:30;34.47;;;5.93;;
53479;SDS011;56133;51.012;-1.648;2022-12-20T08:45:57;17.05;;;4.32;;
53479;SDS011;56133;51.012;-1.648;2022-12-20T08:48:22;59.55;;;7.28;;
53479;SDS011;56133;51.012;-1.648;2022-12-20T08:50:57;42.47;;;6.53;;
53479;SDS011;56133;51.012;-1.648;2022-12-20T08:53:25;67.60;;;7.63;;
53479;SDS011;56133;51.012;-1.648;2022-12-20T08:55:52;63.30;;;7.55;;
53479;SDS011;56133;51.012;-1.648;2022-12-20T08:58:17;16.27;;;3.78;;
53479;SDS011;56133;51.012;-1.648;2022-12-20T09:00:43;11.77;;;3.67;;
53479;SDS011;56133;51.012;-1.648;2022-12-20T09:03:10;74.50;;;8.52;;
53479;SDS011;56133;51.012;-1.648;2022-12-20T09:05:47;9.73;;;2.67;;
53479;SDS011;56133;51.012;-1.648;2022-12-20T09:08:14;16.27;;;4.13;;
53479;SDS011;56133;51.012;-1.648;2022-12-20T09:10:40;14.18;;;4.35;;
53479;SDS011;56133;51.012;-1.648;2022-12-20T09:13:07;25.80;;;4.90;;
53479;SDS011;56133;51.012;-1.648;2022-12-20T09:15:33;19.60;;;4.15;;
53479;SDS011;56133;51.012;-1.648;2022-12-20T09:17:59;29.88;;;5.05;;
53479;SDS011;56133;51.012;-1.648;2022-12-20T09:20:26;13.02;;;3.13;;
53479;SDS011;56133;51.012;-1.648;2022-12-20T09:22:52;17.25;;;3.25;;
53479;SDS011;56133;51.012;-1.648;2022-12-20T09:25:17;17.13;;;3.50;;
53479;SDS011;56133;51.012;-1.648;2022-12-20T09:27:43;19.38;;;4.43;;
53479;SDS011;56133;51.012;-1.648;2022-12-20T09:30:09;19.27;;;4.57;;
53479;SDS011;56133;51.012;-1.648;2022-12-20T09:32:35;19.10;;;3.80;;
53479;SDS011;56133;51.012;-1.648;2022-12-20T09:35:01;15.50;;;2.95;;
53479;SDS011;56133;51.012;-1.648;2022-12-20T09:37:28;28.85;;;3.50;;
53479;SDS011;56133;51.012;-1.648;2022-12-20T09:39:55;16.75;;;3.08;;
53479;SDS011;56133;51.012;-1.648;2022-12-20T09:42:21;22.85;;;3.38;;
53479;SDS011;56133;51.012;-1.648;2022-12-20T09:44:50;22.38;;;3.83;;
53479;SDS011;56133;51.012;-1.648;2022-12-20T09:47:20;25.55;;;5.32;;
53479;SDS011;56133;51.012;-1.648;2022-12-20T09:49:49;31.13;;;6.50;;
53479;SDS011;56133;51.012;-1.648;2022-12-20T10:00:39;16.17;;;2.92;;
53479;SDS011;56133;51.012;-1.648;2022-12-20T10:03:15;13.95;;;2.47;;
53479;SDS011;56133;51.012;-1.648;2022-12-20T10:05:52;26.30;;;2.90;;
53479;SDS011;56133;51.012;-1.648;2022-12-20T10:08:23;22.15;;;2.60;;
53479;SDS011;56133;51.012;-1.648;2022-12-20T10:13:33;25.42;;;3.10;;
53479;SDS011;56133;51.012;-1.648;2022-12-20T10:16:26;26.90;;;3.53;;
53479;SDS011;56133;51.012;-1.648;2022-12-20T10:24:12;26.52;;;3.13;;
53479;SDS011;56133;51.012;-1.648;2022-12-20T10:26:42;20.67;;;2.80;;
53479;SDS011;56133;51.012;-1.648;2022-12-20T10:29:07;22.92;;;3.58;;
53479;SDS011;56133;51.012;-1.648;2022-12-20T10:31:33;25.20;;;3.10;;
53479;SDS011;56133;51.012;-1.648;2022-12-20T10:33:59;28.33;;;4.10;;
53479;SDS011;56133;51.012;-1.648;2022-12-20T10:36:27;31.58;;;4.63;;
53479;SDS011;56133;51.012;-1.648;2022-12-20T10:38:55;26.25;;;4.45;;
53479;SDS011;56133;51.012;-1.648;2022-12-20T10:41:23;19.60;;;3.30;;
53479;SDS011;56133;51.012;-1.648;2022-12-20T10:46:41;31.20;;;3.83;;
53479;SDS011;56133;51.012;-1.648;2022-12-20T10:49:34;28.90;;;4.63;;
53479;SDS011;56133;51.012;-1.648;2022-12-20T10:57:06;25.98;;;3.92;;
53479;SDS011;56133;51.012;-1.648;2022-12-20T10:59:41;25.73;;;3.22;;
53479;SDS011;56133;51.012;-1.648;2022-12-20T11:02:22;26.77;;;4.63;;
53479;SDS011;56133;51.012;-1.648;2022-12-20T11:05:01;29.33;;;4.60;;
53479;SDS011;56133;51.012;-1.648;2022-12-20T11:08:13;31.88;;;4.38;;
53479;SDS011;56133;51.012;-1.648;2022-12-20T11:10:37;25.30;;;3.70;;
53479;SDS011;56133;51.012;-1.648;2022-12-20T11:13:02;31.92;;;4.88;;
53479;SDS011;56133;51.012;-1.648;2022-12-20T11:15:32;33.67;;;4.30;;
53479;SDS011;56133;51.012;-1.648;2022-12-20T11:18:07;22.63;;;3.58;;
53479;SDS011;56133;51.012;-1.648;2022-12-20T11:25:57;28.48;;;3.67;;
53479;SDS011;56133;51.012;-1.648;2022-12-20T11:34:17;28.45;;;4.32;;
53479;SDS011;56133;51.012;-1.648;2022-12-20T11:43:29;34.72;;;4.38;;
53479;SDS011;56133;51.012;-1.648;2022-12-20T11:48:24;32.47;;;4.40;;
53479;SDS011;56133;51.012;-1.648;2022-12-20T11:51:11;29.58;;;3.95;;
53479;SDS011;56133;51.012;-1.648;2022-12-20T11:56:20;29.67;;;3.85;;
53479;SDS011;56133;51.012;-1.648;2022-12-20T12:02:15;29.70;;;4.35;;
53479;SDS011;56133;51.012;-1.648;2022-12-20T12:04:45;31.27;;;4.00;;
53479;SDS011;56133;51.012;-1.648;2022-12-20T12:07:21;30.83;;;4.97;;
53479;SDS011;56133;51.012;-1.648;2022-12-20T12:09:54;31.60;;;4.97;;
53479;SDS011;56133;51.012;-1.648;2022-12-20T12:12:26;25.25;;;4.50;;
53479;SDS011;56133;51.012;-1.648;2022-12-20T12:14:59;33.38;;;4.47;;
53479;SDS011;56133;51.012;-1.648;2022-12-20T12:17:45;24.30;;;4.40;;
53479;SDS011;56133;51.012;-1.648;2022-12-20T12:22:43;28.10;;;5.38;;
53479;SDS011;56133;51.012;-1.648;2022-12-20T12:25:13;31.92;;;6.03;;
53479;SDS011;56133;51.012;-1.648;2022-12-20T12:27:41;32.80;;;4.80;;
53479;SDS011;56133;51.012;-1.648;2022-12-20T12:30:11;25.45;;;3.97;;
53479;SDS011;56133;51.012;-1.648;2022-12-20T12:32:42;30.33;;;4.28;;
53479;SDS011;56133;51.012;-1.648;2022-12-20T12:43:52;28.80;;;4.60;;
53479;SDS011;56133;51.012;-1.648;2022-12-20T12:46:29;29.00;;;4.90;;
53479;SDS011;56133;51.012;-1.648;2022-12-20T12:49:03;31.48;;;4.18;;
53479;SDS011;56133;51.012;-1.648;2022-12-20T12:51:42;33.03;;;4.88;;
53479;SDS011;56133;51.012;-1.648;2022-12-20T12:54:18;28.45;;;3.53;;
53479;SDS011;56133;51.012;-1.648;2022-12-20T12:56:48;30.65;;;4.47;;
53479;SDS011;56133;51.012;-1.648;2022-12-20T13:07:27;26.55;;;5.10;;
53479;SDS011;56133;51.012;-1.648;2022-12-20T13:15:00;26.77;;;4.72;;
53479;SDS011;56133;51.012;-1.648;2022-12-20T13:19:52;31.80;;;4.78;;
53479;SDS011;56133;51.012;-1.648;2022-12-20T13:22:23;31.58;;;4.55;;
53479;SDS011;56133;51.012;-1.648;2022-12-20T13:25:02;31.42;;;5.03;;
53479;SDS011;56133;51.012;-1.648;2022-12-20T13:37:59;30.30;;;4.95;;
53479;SDS011;56133;51.012;-1.648;2022-12-20T13:40:54;28.30;;;4.25;;
53479;SDS011;56133;51.012;-1.648;2022-12-20T13:43:24;25.08;;;4.85;;
53479;SDS011;56133;51.012;-1.648;2022-12-20T13:51:25;35.10;;;6.88;;
53479;SDS011;56133;51.012;-1.648;2022-12-20T13:53:59;30.70;;;5.63;;
53479;SDS011;56133;51.012;-1.648;2022-12-20T13:58:56;28.50;;;4.30;;
53479;SDS011;56133;51.012;-1.648;2022-12-20T14:01:24;29.45;;;4.50;;
53479;SDS011;56133;51.012;-1.648;2022-12-20T14:03:50;33.70;;;4.53;;
53479;SDS011;56133;51.012;-1.648;2022-12-20T14:06:18;30.10;;;4.82;;
53479;SDS011;56133;51.012;-1.648;2022-12-20T14:08:47;33.03;;;4.78;;
53479;SDS011;56133;51.012;-1.648;2022-12-20T14:11:14;28.67;;;5.20;;
53479;SDS011;56133;51.012;-1.648;2022-12-20T14:16:26;30.52;;;4.80;;
53479;SDS011;56133;51.012;-1.648;2022-12-20T14:21:22;34.78;;;6.60;;
53479;SDS011;56133;51.012;-1.648;2022-12-20T14:23:49;29.35;;;4.53;;
53479;SDS011;56133;51.012;-1.648;2022-12-20T14:26:20;27.38;;;6.05;;
53479;SDS011;56133;51.012;-1.648;2022-12-20T14:28:49;30.50;;;5.05;;
53479;SDS011;56133;51.012;-1.648;2022-12-20T14:36:38;24.95;;;4.65;;
53479;SDS011;56133;51.012;-1.648;2022-12-20T14:39:27;27.35;;;4.78;;
53479;SDS011;56133;51.012;-1.648;2022-12-20T14:44:36;28.92;;;4.63;;
53479;SDS011;56133;51.012;-1.648;2022-12-20T14:49:45;29.60;;;4.30;;
53479;SDS011;56133;51.012;-1.648;2022-12-20T14:52:14;30.48;;;4.35;;
53479;SDS011;56133;51.012;-1.648;2022-12-20T14:54:45;31.40;;;5.43;;
53479;SDS011;56133;51.012;-1.648;2022-12-20T14:57:28;27.27;;;4.63;;
53479;SDS011;56133;51.012;-1.648;2022-12-20T15:05:06;35.30;;;6.05;;
53479;SDS011;56133;51.012;-1.648;2022-12-20T15:07:50;35.10;;;5.10;;
53479;SDS011;56133;51.012;-1.648;2022-12-20T15:10:15;32.45;;;4.85;;
53479;SDS011;56133;51.012;-1.648;2022-12-20T15:12:41;32.42;;;5.75;;
53479;SDS011;56133;51.012;-1.648;2022-12-20T15:15:10;33.90;;;4.22;;
53479;SDS011;56133;51.012;-1.648;2022-12-20T15:17:39;43.25;;;5.32;;
53479;SDS011;56133;51.012;-1.648;2022-12-20T15:20:07;32.85;;;4.88;;
53479;SDS011;56133;51.012;-1.648;2022-12-20T15:22:37;32.75;;;5.03;;
53479;SDS011;56133;51.012;-1.648;2022-12-20T15:25:07;30.85;;;5.18;;
53479;SDS011;56133;51.012;-1.648;2022-12-20T15:27:40;35.58;;;5.90;;
53479;SDS011;56133;51.012;-1.648;2022-12-20T15:30:09;40.17;;;8.02;;
53479;SDS011;56133;51.012;-1.648;2022-12-20T15:32:37;41.70;;;8.68;;
53479;SDS011;56133;51.012;-1.648;2022-12-20T15:35:04;47.80;;;9.82;;
53479;SDS011;56133;51.012;-1.648;2022-12-20T15:37:30;43.92;;;9.93;;
53479;SDS011;56133;51.012;-1.648;2022-12-20T15:39:55;41.70;;;9.27;;
53479;SDS011;56133;51.012;-1.648;2022-12-20T15:42:21;50.67;;;9.52;;
53479;SDS011;56133;51.012;-1.648;2022-12-20T15:44:48;43.03;;;9.50;;
53479;SDS011;56133;51.012;-1.648;2022-12-20T15:47:13;55.88;;;11.82;;
53479;SDS011;56133;51.012;-1.648;2022-12-20T15:49:40;52.55;;;14.27;;
53479;SDS011;56133;51.012;-1.648;2022-12-20T15:52:08;59.22;;;16.77;;
53479;SDS011;56133;51.012;-1.648;2022-12-20T15:54:42;54.17;;;15.95;;
53479;SDS011;56133;51.012;-1.648;2022-12-20T15:57:08;52.55;;;11.20;;
53479;SDS011;56133;51.012;-1.648;2022-12-20T15:59:37;43.47;;;11.77;;
53479;SDS011;56133;51.012;-1.648;2022-12-20T16:02:05;56.28;;;16.90;;
53479;SDS011;56133;51.012;-1.648;2022-12-20T16:04:41;61.45;;;19.35;;
53479;SDS011;56133;51.012;-1.648;2022-12-20T16:07:07;62.95;;;19.08;;
53479;SDS011;56133;51.012;-1.648;2022-12-20T16:09:35;52.40;;;16.27;;
53479;SDS011;56133;51.012;-1.648;2022-12-20T16:12:01;53.40;;;9.90;;
53479;SDS011;56133;51.012;-1.648;2022-12-20T16:14:27;41.20;;;7.30;;
53479;SDS011;56133;51.012;-1.648;2022-12-20T16:16:52;39.50;;;6.03;;
53479;SDS011;56133;51.012;-1.648;2022-12-20T16:19:18;34.83;;;6.07;;
53479;SDS011;56133;51.012;-1.648;2022-12-20T16:21:47;39.03;;;6.32;;
53479;SDS011;56133;51.012;-1.648;2022-12-20T16:24:15;31.80;;;6.55;;
53479;SDS011;56133;51.012;-1.648;2022-12-20T16:26:42;37.50;;;6.68;;
53479;SDS011;56133;51.012;-1.648;2022-12-20T16:29:08;42.40;;;6.90;;
53479;SDS011;56133;51.012;-1.648;2022-12-20T16:31:42;34.95;;;6.43;;
53479;SDS011;56133;51.012;-1.648;2022-12-20T16:34:12;30.05;;;5.15;;
53479;SDS011;56133;51.012;-1.648;2022-12-20T16:36:40;39.63;;;6.78;;
53479;SDS011;56133;51.012;-1.648;2022-12-20T16:39:05;42.33;;;6.88;;
53479;SDS011;56133;51.012;-1.648;2022-12-20T16:41:34;43.60;;;11.98;;
53479;SDS011;56133;51.012;-1.648;2022-12-20T16:44:00;65.90;;;19.70;;
53479;SDS011;56133;51.012;-1.648;2022-12-20T16:46:27;94.80;;;29.85;;